Artesia, New Mexico
Current Conditions -  °F | °C
As of 7:15 AM on Sunday 21 Dec 2014 (Local Time) from KATS Reporting Station
Clear Clear  
Wind Chill: -4°   Ceiling: Unl
Heat Index:   Visibility: 10mi
Dew Point: -5°   Wind: 7mph
Humidity: 69%   Direction: 240°WSW
Pressure: 29.96"   Gusts: NA
Location:  32.84°N, 104.39°W
Report Text: KATS 211415Z AUTO 24006KT 10SM CLR M00/M05 A2996 RMK AO2
Loading
Personal Weather Stations






























Interactive Weather Map New forecast layout! Learn more

10-Day Weather Forecast

Advertisements
Track Severe Weather on mobile